LFLB/CMF METAR and TAF weather

Enter ICAO airport designator
Station Type Date Time Source
LFLB METAR 2024/06/15 23:00 UTC NOAA

LFLB 152300Z AUTO 18006KT 150V220 9999 SCT060 BKN070 OVC092 16/13 Q1013


Station Type Date Time Source
LFLB Decoded METAR 2024/06/15 23:00 UTC NOAA

Chambery / Aix-Les-Bains, France (LFLB) 45-39N 005-53E 239M
Jun 15, 2024 - 07:00 PM EDT / 2024.06.15 2300 UTC
Wind: from the S (180 degrees) at 7 MPH (6 KT) (direction variable):0
Visibility: greater than 7 mile(s):0
Sky conditions: overcast
Temperature: 60 F (16 C)
Dew Point: 55 F (13 C)
Relative Humidity: 82%
Pressure (altimeter): 29.91 in. Hg (1013 hPa)
ob: LFLB 152300Z AUTO 18006KT 150V220 9999 SCT060 BKN070 OVC092 16/13 Q1013
cycle: 23

Station Type Date Time Source
LFLB TAF 2024/06/15 19:30 UTC NOAA